createdAt,value
2023-05-17T00:01:21.744Z,43.27
2023-05-17T00:05:15.196Z,43.73
2023-05-17T00:09:06.981Z,44.41
2023-05-17T00:13:06.332Z,45.89
2023-05-17T00:17:02.150Z,46.95
2023-05-17T00:21:01.462Z,46.82
2023-05-17T00:24:57.027Z,45.94
2023-05-17T00:28:56.424Z,47.96
2023-05-17T00:32:52.097Z,50.39
2023-05-17T00:36:51.414Z,52.94
2023-05-17T00:40:38.374Z,54.44
2023-05-17T00:44:23.323Z,56.14
2023-05-17T00:48:08.615Z,56.88
2023-05-17T00:51:54.082Z,58.59
2023-05-17T00:55:39.182Z,60.85
2023-05-17T00:59:24.295Z,62.99
2023-05-17T01:03:09.620Z,64.89
2023-05-17T01:07:02.829Z,67.24
2023-05-17T01:11:01.764Z,68.70
2023-05-17T01:14:56.865Z,70.14
2023-05-17T01:18:56.282Z,71.00
2023-05-17T01:22:51.924Z,72.25
2023-05-17T01:26:51.109Z,74.33
2023-05-17T01:30:47.044Z,72.87
2023-05-17T01:34:47.055Z,73.02
2023-05-17T01:38:43.577Z,73.89
2023-05-17T01:42:43.825Z,73.89
2023-05-17T01:46:41.780Z,73.99
2023-05-17T01:50:41.863Z,75.83
2023-05-17T01:54:40.396Z,77.40
2023-05-17T01:58:39.984Z,79.24
2023-05-17T02:02:36.691Z,78.26
2023-05-17T02:06:36.919Z,79.14
2023-05-17T02:10:33.344Z,81.11
2023-05-17T02:14:32.890Z,80.86
2023-05-17T02:18:29.660Z,81.27
2023-05-17T02:22:31.068Z,81.57
2023-05-17T02:26:27.626Z,82.59
2023-05-17T02:30:28.921Z,83.54
2023-05-17T02:34:27.177Z,83.96
2023-05-17T02:38:26.976Z,84.61
2023-05-17T02:42:24.130Z,85.48
2023-05-17T02:46:23.946Z,85.68
2023-05-17T02:50:21.160Z,86.74
2023-05-17T02:54:21.053Z,87.55
2023-05-17T02:58:19.393Z,88.70
2023-05-17T03:02:19.162Z,87.65
2023-05-17T03:06:17.076Z,88.95
2023-05-17T03:10:16.313Z,89.30
2023-05-17T03:14:15.350Z,89.10
2023-05-17T03:18:14.729Z,90.04
2023-05-17T03:22:13.279Z,89.27
2023-05-17T03:26:12.917Z,87.84
2023-05-17T03:30:16.299Z,88.13
2023-05-17T03:34:16.999Z,86.00
2023-05-17T03:38:14.505Z,85.12
2023-05-17T03:42:14.139Z,86.01
2023-05-17T03:46:12.042Z,99.39
2023-05-17T03:50:12.188Z,100.00
2023-05-17T03:54:09.905Z,100.00
2023-05-17T03:58:09.172Z,100.00
2023-05-17T04:02:06.890Z,100.00
2023-05-17T04:06:08.221Z,100.00
2023-05-17T04:10:06.652Z,100.00
2023-05-17T04:14:06.132Z,99.76
2023-05-17T04:18:04.234Z,99.08
2023-05-17T04:22:04.174Z,97.74
2023-05-17T04:26:01.971Z,96.52
2023-05-17T04:30:02.343Z,93.81
2023-05-17T04:34:00.336Z,90.39
2023-05-17T04:38:00.052Z,85.61
2023-05-17T04:41:56.633Z,82.08
2023-05-17T04:45:57.233Z,79.97
2023-05-17T04:49:54.994Z,76.58
2023-05-17T04:53:55.140Z,71.88
2023-05-17T04:57:52.029Z,67.17
2023-05-17T05:01:52.262Z,64.28
2023-05-17T05:05:48.829Z,63.01
2023-05-17T05:09:48.091Z,62.18
2023-05-17T05:13:46.168Z,61.03
2023-05-17T05:17:46.437Z,59.63
2023-05-17T05:21:43.929Z,59.80
2023-05-17T05:25:44.300Z,59.36
2023-05-17T05:29:42.241Z,59.15
2023-05-17T05:33:29.245Z,59.17
2023-05-17T05:37:16.201Z,58.75
2023-05-17T05:41:03.293Z,57.45
2023-05-17T05:44:48.614Z,57.64
2023-05-17T05:48:34.613Z,55.82
2023-05-17T05:52:19.871Z,54.86
2023-05-17T05:56:05.412Z,53.46
2023-05-17T05:59:50.240Z,51.99
2023-05-17T06:03:35.281Z,51.78
2023-05-17T06:07:26.868Z,52.17
2023-05-17T06:11:18.533Z,55.66
2023-05-17T06:15:20.878Z,56.03
2023-05-17T06:19:20.380Z,57.89
2023-05-17T06:23:18.128Z,63.17
2023-05-17T06:27:17.402Z,69.71
2023-05-17T06:31:12.466Z,72.99
2023-05-17T06:35:11.480Z,71.76
2023-05-17T06:39:06.723Z,70.81
2023-05-17T06:43:06.369Z,67.92
2023-05-17T06:47:01.892Z,66.41
2023-05-17T06:50:47.061Z,64.84
2023-05-17T06:54:32.050Z,60.77
2023-05-17T06:58:17.184Z,55.70
2023-05-17T07:02:02.441Z,52.74
2023-05-17T07:05:59.778Z,52.27
2023-05-17T07:10:01.348Z,50.05
2023-05-17T07:13:59.501Z,46.83
2023-05-17T07:18:01.343Z,45.36
2023-05-17T07:21:59.598Z,44.56
2023-05-17T07:25:58.946Z,45.40
2023-05-17T07:29:57.449Z,46.12
2023-05-17T07:33:56.708Z,44.05
2023-05-17T07:37:55.417Z,42.41
2023-05-17T07:41:57.182Z,43.16
2023-05-17T07:45:54.759Z,43.83
2023-05-17T07:49:56.322Z,45.22
2023-05-17T07:53:51.589Z,47.21
2023-05-17T07:57:51.624Z,49.33
2023-05-17T08:01:50.769Z,51.70
2023-05-17T08:05:49.381Z,53.07
2023-05-17T08:09:54.495Z,54.49
2023-05-17T08:13:49.634Z,54.43
2023-05-17T08:17:51.553Z,55.79
2023-05-17T08:21:46.640Z,55.85
2023-05-17T08:25:48.412Z,53.53
2023-05-17T08:29:47.501Z,52.73
2023-05-17T08:33:47.243Z,52.15
2023-05-17T08:37:44.856Z,50.19
2023-05-17T08:41:38.460Z,48.38
2023-05-17T08:45:33.836Z,46.01
2023-05-17T08:49:27.517Z,43.96
2023-05-17T08:53:23.800Z,43.79
2023-05-17T08:57:17.506Z,41.33
2023-05-17T09:01:12.791Z,40.49
2023-05-17T09:05:12.358Z,39.59
2023-05-17T09:09:07.657Z,39.31
2023-05-17T09:13:07.202Z,39.07
2023-05-17T09:16:58.803Z,39.24
2023-05-17T09:20:57.886Z,39.32
2023-05-17T09:24:49.739Z,38.83
2023-05-17T09:28:48.995Z,37.84
2023-05-17T09:32:44.752Z,37.39
2023-05-17T09:36:43.932Z,37.56
2023-05-17T09:40:39.695Z,36.93
2023-05-17T09:44:38.583Z,35.99
2023-05-17T09:48:34.603Z,35.54
2023-05-17T09:52:33.809Z,35.35
2023-05-17T09:56:28.952Z,34.66
2023-05-17T10:00:26.167Z,34.36
2023-05-17T10:04:21.810Z,33.97
2023-05-17T10:08:21.372Z,33.27
2023-05-17T10:12:16.916Z,32.55
2023-05-17T10:16:16.259Z,33.24
2023-05-17T10:20:12.124Z,32.30
2023-05-17T10:24:11.578Z,31.94
2023-05-17T10:28:07.057Z,31.60
2023-05-17T10:32:06.470Z,31.60
2023-05-17T10:35:59.488Z,31.72
2023-05-17T10:39:59.046Z,32.42
2023-05-17T10:43:54.738Z,32.21
2023-05-17T10:47:54.108Z,30.94
2023-05-17T10:51:49.719Z,30.86
2023-05-17T10:55:48.965Z,30.46
2023-05-17T10:59:44.993Z,31.65
2023-05-17T11:03:44.841Z,32.14
2023-05-17T11:07:44.771Z,32.64
2023-05-17T11:11:46.397Z,33.72
2023-05-17T11:15:44.982Z,32.00
2023-05-17T11:19:46.635Z,31.15
2023-05-17T11:23:44.815Z,30.95
2023-05-17T11:27:46.311Z,29.76
2023-05-17T11:31:43.861Z,29.51
2023-05-17T11:35:45.362Z,29.38
2023-05-17T11:39:43.825Z,27.78
2023-05-17T11:43:45.978Z,26.80
2023-05-17T11:47:43.897Z,26.67
2023-05-17T11:51:44.983Z,25.57
2023-05-17T11:55:42.786Z,25.13
2023-05-17T11:59:44.529Z,25.23
2023-05-17T12:03:42.926Z,25.18
2023-05-17T12:07:44.387Z,25.10
2023-05-17T12:11:42.957Z,25.70
2023-05-17T12:15:44.500Z,27.21
2023-05-17T12:19:42.984Z,28.70
2023-05-17T12:23:44.379Z,29.21
2023-05-17T12:27:41.938Z,27.88
2023-05-17T12:31:42.893Z,28.56
2023-05-17T12:35:40.954Z,28.27
2023-05-17T12:39:42.717Z,28.78
2023-05-17T12:43:40.852Z,27.95
2023-05-17T12:47:42.757Z,25.65
2023-05-17T12:51:40.971Z,24.20
2023-05-17T12:55:42.452Z,23.71
2023-05-17T12:59:41.048Z,22.52
2023-05-17T13:03:42.293Z,22.48
2023-05-17T13:07:41.069Z,22.21
2023-05-17T13:11:43.017Z,21.89
2023-05-17T13:15:41.014Z,21.29
2023-05-17T13:19:42.745Z,20.87
2023-05-17T13:23:41.129Z,21.24
2023-05-17T13:27:42.471Z,21.89
2023-05-17T13:31:41.026Z,21.70
2023-05-17T13:35:42.617Z,22.91
2023-05-17T13:39:40.875Z,24.04
2023-05-17T13:43:42.693Z,23.62
2023-05-17T13:47:35.980Z,23.29
2023-05-17T13:51:37.756Z,23.31
2023-05-17T13:55:31.060Z,21.96
2023-05-17T13:59:32.770Z,22.14
2023-05-17T14:03:31.282Z,22.67
2023-05-17T14:07:32.631Z,23.45
2023-05-17T14:11:31.314Z,24.14
2023-05-17T14:15:32.723Z,24.47
2023-05-17T14:19:31.162Z,24.21
2023-05-17T14:23:32.697Z,24.45
2023-05-17T14:27:31.614Z,24.46
2023-05-17T14:31:33.657Z,24.98
2023-05-17T14:35:32.140Z,24.55
2023-05-17T14:39:31.775Z,24.57
2023-05-17T14:43:29.257Z,24.59
2023-05-17T14:47:28.791Z,24.23
2023-05-17T14:51:26.509Z,24.75
2023-05-17T14:55:26.840Z,25.39
2023-05-17T14:59:24.528Z,25.50
2023-05-17T15:03:24.724Z,25.70
2023-05-17T15:07:28.644Z,25.50
2023-05-17T15:11:28.307Z,25.39
2023-05-17T15:15:29.333Z,25.84
2023-05-17T15:19:28.456Z,25.59
2023-05-17T15:23:30.210Z,25.40
2023-05-17T15:27:29.366Z,25.20
2023-05-17T15:31:30.848Z,25.86
2023-05-17T15:35:29.604Z,26.37
2023-05-17T15:39:31.288Z,26.98
2023-05-17T15:43:29.319Z,27.37
2023-05-17T15:47:42.356Z,27.34
2023-05-17T15:51:41.311Z,27.43
2023-05-17T15:55:42.837Z,27.95
2023-05-17T15:59:41.256Z,28.56
2023-05-17T16:03:39.298Z,29.20
2023-05-17T16:07:41.045Z,29.77
2023-05-17T16:11:39.483Z,30.13
2023-05-17T16:15:40.424Z,29.92
2023-05-17T16:19:38.483Z,29.89
2023-05-17T16:23:39.952Z,30.26
2023-05-17T16:27:38.329Z,30.37
2023-05-17T16:31:39.990Z,30.41
2023-05-17T16:35:38.360Z,30.92
2023-05-17T16:39:39.952Z,31.61
2023-05-17T16:43:39.925Z,31.60
2023-05-17T16:47:42.057Z,31.36
2023-05-17T16:51:41.918Z,31.81
2023-05-17T16:55:43.462Z,32.07
2023-05-17T16:59:40.438Z,31.60
2023-05-17T17:03:40.629Z,31.56
2023-05-17T17:07:37.789Z,31.60
2023-05-17T17:11:33.648Z,31.48
2023-05-17T17:15:29.593Z,31.58
2023-05-17T17:19:27.294Z,31.67
2023-05-17T17:23:24.664Z,31.97
2023-05-17T17:27:23.725Z,32.17
2023-05-17T17:31:19.536Z,32.29
2023-05-17T17:35:18.565Z,32.46
2023-05-17T17:39:13.574Z,32.69
2023-05-17T17:43:12.854Z,32.63
2023-05-17T17:47:08.875Z,32.88
2023-05-17T17:51:04.681Z,33.14
2023-05-17T17:55:03.757Z,33.32
2023-05-17T17:58:59.887Z,33.54
2023-05-17T18:02:59.440Z,34.12
2023-05-17T18:06:54.993Z,35.52
2023-05-17T18:10:50.620Z,36.30
2023-05-17T18:14:45.842Z,36.75
2023-05-17T18:18:41.529Z,37.32
2023-05-17T18:22:38.779Z,37.86
2023-05-17T18:26:35.785Z,38.35
2023-05-17T18:30:35.397Z,39.08
2023-05-17T18:34:30.707Z,39.91
2023-05-17T18:38:29.722Z,40.53
2023-05-17T18:42:28.689Z,41.83
2023-05-17T18:46:23.796Z,43.10
2023-05-17T18:50:22.875Z,44.08
2023-05-17T18:54:18.871Z,44.71
2023-05-17T18:58:15.282Z,46.13
2023-05-17T19:02:14.308Z,46.88
2023-05-17T19:06:09.643Z,48.50
2023-05-17T19:10:09.022Z,49.82
2023-05-17T19:14:08.268Z,51.40
2023-05-17T19:18:09.241Z,53.34
2023-05-17T19:22:04.729Z,54.26
2023-05-17T19:26:04.652Z,54.85
2023-05-17T19:29:59.892Z,56.31
2023-05-17T19:34:03.233Z,57.71
2023-05-17T19:37:58.896Z,59.23
2023-05-17T19:41:58.049Z,60.20
2023-05-17T19:45:54.198Z,60.89
2023-05-17T19:49:53.436Z,62.08
2023-05-17T19:53:54.382Z,63.60
2023-05-17T19:57:50.962Z,65.34
2023-05-17T20:01:53.380Z,67.72
2023-05-17T20:05:49.266Z,69.49
2023-05-17T20:09:53.381Z,71.03
2023-05-17T20:13:49.465Z,71.19
2023-05-17T20:17:50.900Z,71.44
2023-05-17T20:21:50.436Z,71.31
2023-05-17T20:25:55.431Z,72.49
2023-05-17T20:29:51.023Z,74.03
2023-05-17T20:33:48.222Z,74.79
2023-05-17T20:37:47.679Z,74.52
2023-05-17T20:41:46.948Z,74.68
2023-05-17T20:45:42.009Z,74.15
2023-05-17T20:49:41.515Z,74.64
2023-05-17T20:53:37.032Z,76.22
2023-05-17T20:57:34.105Z,76.75
2023-05-17T21:01:27.477Z,78.86
2023-05-17T21:05:30.590Z,79.99
2023-05-17T21:09:25.937Z,79.38
2023-05-17T21:13:25.055Z,81.57
2023-05-17T21:17:21.112Z,82.72
2023-05-17T21:21:20.689Z,84.98
2023-05-17T21:25:16.330Z,85.79
2023-05-17T21:29:13.322Z,86.34
2023-05-17T21:33:13.678Z,85.12
2023-05-17T21:37:13.041Z,85.61
2023-05-17T21:41:10.065Z,86.39
2023-05-17T21:45:06.220Z,87.56
2023-05-17T21:49:06.366Z,89.52
2023-05-17T21:53:05.545Z,87.87
2023-05-17T21:56:58.484Z,88.75
2023-05-17T22:01:01.785Z,90.34
2023-05-17T22:04:57.310Z,90.96
2023-05-17T22:08:56.958Z,91.61
2023-05-17T22:12:52.131Z,94.40
2023-05-17T22:16:51.192Z,94.70
2023-05-17T22:20:47.373Z,96.24
2023-05-17T22:24:44.577Z,96.96
2023-05-17T22:28:44.674Z,97.54
2023-05-17T22:32:43.522Z,97.93
2023-05-17T22:36:39.155Z,98.87
2023-05-17T22:40:38.628Z,98.82
2023-05-17T22:44:34.247Z,99.56
2023-05-17T22:48:33.352Z,100.00
2023-05-17T22:52:26.538Z,100.00
2023-05-17T22:56:29.704Z,100.00
2023-05-17T23:00:25.471Z,100.00
2023-05-17T23:04:21.278Z,98.72
2023-05-17T23:08:20.248Z,99.73
2023-05-17T23:12:22.006Z,100.00
2023-05-17T23:16:17.194Z,100.00
2023-05-17T23:20:06.359Z,100.00
2023-05-17T23:23:55.019Z,100.00
2023-05-17T23:27:41.497Z,100.00
2023-05-17T23:31:30.461Z,100.00
2023-05-17T23:35:15.428Z,100.00
2023-05-17T23:39:00.625Z,100.00
2023-05-17T23:42:45.869Z,100.00
2023-05-17T23:46:30.827Z,100.00
2023-05-17T23:50:16.019Z,100.00
2023-05-17T23:54:01.144Z,100.00
2023-05-17T23:57:46.420Z,100.00
